Historyczne dane pomiarowe

Dodano dane terminowe – wersja testowa.

Dane z okresu 1951-2019

Wersja bazy: 1.34 [2019-03-16, lista zmian], aktualizacja planowana na 2019-04-15

Dane meteo z obszaru Polski uzyskane na podstawie danych udostępnionych przez Instytut Meteorologii i Gospodarki Wodnej – Państwowy Instytut Badawczy.

 

Wybierz Datę:    

       

TemperaturaWilgotnośćWiatrCiśnienieOpadyŚniegCzas trwania zjawisk
 Stacja t tx tn tng RH VA  wxwx mslp ppp RRR   cm mm wxwxwxwxwxwxwx
1961-08-14 13.7 19.9 7.5--- 2.0 0.3---- 0.0------------
1961-08-13 12.9 18.5 11.3--- 5.7 2.3---- 8.6------------
1961-08-12 19.2 25.0 13.9--- 7.7 1.7---- 12.3------------
1961-08-11 25.3 33.5 18.9--- 3.7 3.3---- 0.0------------
1961-08-10 24.6 30.3 18.9--- 4.0 2.0---- 0.1------------
1961-08-09 22.4 30.1 13.4--- 4.3 0.7---- 8.5------------
1961-08-08 20.0 25.0 17.1--- 7.3 4.7---- 0.5------------
1961-08-07 24.6 31.2 17.9--- 3.0 3.7---- 0.0------------
1961-08-06 23.3 29.5 13.4--- 1.3 1.7---- 0.0------------
1961-08-05 19.4 24.3 14.8--- 4.3 2.3---- 0.0------------
1961-08-04 16.8 26.5 12.5--- 3.7 0.7---- 0.0------------
1961-08-03 17.9 24.0 11.2--- 6.7 0.3---- 7.7------------
1961-08-02 18.4 26.2 13.3--- 0.3 1.0---- 0.0------------
1961-08-01 15.3 22.4 11.0--- 5.3 2.7---- 0.0------------
1961-07-31 13.7 17.9 11.2--- 7.3 4.0---- 0.3------------
1961-07-30 12.2 14.4 11.5--- 8.0 2.7---- 22.7------------
1961-07-29 14.5 18.0 13.2--- 8.0 2.0---- 26.9------------
1961-07-28 20.7 28.6 16.7--- 5.0 2.0---- 4.2------------
1961-07-27 21.0 27.2 12.2--- 6.7 2.3---- 0.0------------
1961-07-26 16.5 22.5 11.8--- 6.3 1.0---- 0.0------------
1961-07-25 14.4 17.6 11.7--- 8.0 1.0---- 0.0------------
1961-07-24 15.3 20.0 9.1--- 6.3 1.3---- 0.0------------
1961-07-23 15.3 21.0 10.6--- 6.7 1.0---- 0.0------------
1961-07-22 14.7 19.7 12.8--- 7.0 2.0---- 0.2------------
1961-07-21 15.5 20.6 12.1--- 6.3 1.7---- 0.5------------
1961-07-20 15.1 20.3 9.6--- 6.7 0.7---- 15.1------------
1961-07-19 15.0 21.9 7.2--- 5.3 1.3---- 0.0------------
1961-07-18 13.8 20.0 8.2--- 4.3 1.7---- 0.2------------
1961-07-17 15.9 23.8 11.7--- 6.0 1.0---- 4.5------------
1961-07-16 16.3 22.7 13.2--- 4.7 2.7---- 0.4------------
1961-07-15 17.4 24.5 8.6--- 5.3 1.7---- 0.5------------
1961-07-14 13.8 19.9 8.6--- 6.3 2.3---- 0.0------------
1961-07-13 20.3 29.8 13.2--- 3.7 4.0---- 11.6------------
1961-07-12 18.7 26.9 9.4--- 3.7 0.7---- 0.0------------
1961-07-11 15.0 21.7 7.2--- 3.3 1.7---- 0.0------------
1961-07-10 13.8 19.7 11.1--- 7.0 3.3---- 0.2------------
1961-07-09 16.2 24.0 7.8--- 7.7 1.0---- 2.4------------
1961-07-08 13.7 20.6 5.7--- 2.3 0.3---- 0.0------------
1961-07-07 13.1 18.5 8.8--- 4.3 1.0---- 5.8------------
1961-07-06 13.1 17.7 7.5--- 5.7 1.7---- 0.0------------
1961-07-05 15.4 19.8 13.8--- 6.3 0.7---- 0.0------------
1961-07-04 21.8 31.9 14.0--- 4.0 1.0---- 22.9------------
1961-07-03 21.1 30.6 9.0--- 1.0 0.7---- 0.0------------
1961-07-02 19.8 28.5 8.3--- 0.0 0.0---- 0.0------------
1961-07-01 18.6 26.7 9.3--- 1.3 1.0---- 0.0------------
1961-06-30 16.9 23.2 10.1--- 2.7 0.7---- 0.0------------
1961-06-29 15.7 20.5 8.4--- 5.3 0.7---- 0.0------------
1961-06-28 14.4 20.5 12.6--- 7.0 2.7---- 5.5------------
1961-06-27 23.1 32.0 15.7--- 2.7 2.3---- 6.0------------
1961-06-26 22.8 31.9 13.2--- 3.3 1.0---- 2.3------------
1961-06-25 21.7 29.9 8.6--- 2.0 2.0---- 0.0------------
1961-06-24 17.8 25.6 10.2--- 6.7 1.7---- 0.0------------
1961-06-23 18.6 24.3 14.6--- 4.7 1.3---- 2.2------------
1961-06-22 17.6 24.0 9.8--- 4.3 2.0---- 1.7------------
1961-06-21 16.0 24.2 4.1--- 0.3 0.3---- 0.0------------
1961-06-20 14.2 21.5 8.6--- 2.0 2.7---- 0.0------------
1961-06-19 21.1 27.9 12.9--- 4.7 2.3---- 0.0------------
1961-06-18 18.7 26.0 6.5--- 3.0 1.0---- 0.0------------
1961-06-17 14.5 22.0 5.2--- 2.3 1.3---- 0.0------------
1961-06-16 12.9 19.1 7.2--- 4.7 1.7---- 0.0------------
244.0 ms

 

Źródłem pochodzenia danych jest Instytut Meteorologii i Gospodarki Wodnej – Państwowy Instytut Badawczy. Dane Instytutu Meteorologii i Gospodarki Wodnej – Państwowego Instytutu Badawczego zostały przetworzone.

Dane źródłowe można odnaleźć na stronie https://dane.imgw.pl